Time;durP1;ratioP1;P1;durP2;ratioP2;P2;SDS_P1;SDS_P2;PMS_P1;PMS_P2;Temp;Humidity;BMP_temperature;BMP_pressure;BME280_temperature;BME280_humidity;BME280_pressure;Samples;Min_cycle;Max_cycle;Signal;HPM_P1;HPM_P2
2023/09/10 06:01:08;;;;;;;20.57;13.50;;;;;;;;;;5528948;23;20495;-69
2023/09/10 06:03:34;;;;;;;22.87;14.83;;;;;;;;;;4899335;29;20442;-68
2023/09/10 06:06:01;;;;;;;22.87;15.10;;;;;;;;;;4898360;29;20911;-68
2023/09/10 06:08:27;;;;;;;25.90;15.27;;;;;;;;;;4902107;29;20415;-68
2023/09/10 06:10:53;;;;;;;24.03;15.20;;;;;;;;;;4917190;29;20881;-68
2023/09/10 06:13:19;;;;;;;23.20;14.00;;;;;;;;;;4918157;29;20417;-68
2023/09/10 06:15:45;;;;;;;19.70;13.50;;;;;;;;;;4918995;29;20414;-70
2023/09/10 06:18:11;;;;;;;19.20;13.70;;;;;;;;;;4915060;29;20463;-69
2023/09/10 06:20:37;;;;;;;26.17;14.27;;;;;;;;;;4899433;29;20973;-69
2023/09/10 06:23:03;;;;;;;28.73;14.83;;;;;;;;;;4898604;29;20930;-69
2023/09/10 06:25:29;;;;;;;17.07;12.33;;;;;;;;;;4898485;29;20412;-69
2023/09/10 06:27:55;;;;;;;21.13;13.70;;;;;;;;;;4898250;29;20918;-69
2023/09/10 06:30:21;;;;;;;20.23;13.50;;;;;;;;;;4894601;29;20439;-69
2023/09/10 06:32:52;;;;;;;22.90;12.77;;;;;;;;;;4912821;29;20450;-69
2023/09/10 06:35:18;;;;;;;21.63;13.13;;;;;;;;;;4904987;29;20503;-72
2023/09/10 06:37:44;;;;;;;20.90;14.20;;;;;;;;;;4899958;29;20503;-71
2023/09/10 06:40:11;;;;;;;19.90;13.47;;;;;;;;;;4898732;29;20527;-70
2023/09/10 06:42:36;;;;;;;24.63;15.00;;;;;;;;;;4896036;29;20419;-69
2023/09/10 06:45:02;;;;;;;21.07;12.63;;;;;;;;;;4898732;29;20426;-69
2023/09/10 06:47:28;;;;;;;22.93;13.83;;;;;;;;;;4898531;29;20758;-70
2023/09/10 06:49:54;;;;;;;18.50;12.77;;;;;;;;;;4911090;29;20868;-70
2023/09/10 06:52:20;;;;;;;28.70;14.90;;;;;;;;;;4916011;29;20439;-70
2023/09/10 06:54:47;;;;;;;22.70;13.43;;;;;;;;;;4916602;29;20457;-70
2023/09/10 06:57:13;;;;;;;17.70;12.63;;;;;;;;;;4916373;29;20903;-70
2023/09/10 06:59:39;;;;;;;19.53;14.10;;;;;;;;;;4916121;29;20485;-70
2023/09/10 07:02:05;;;;;;;20.97;13.40;;;;;;;;;;4916047;29;20458;-71
2023/09/10 07:04:31;;;;;;;20.03;14.03;;;;;;;;;;4915988;29;20454;-71
2023/09/10 07:06:57;;;;;;;21.43;13.20;;;;;;;;;;4906334;29;20427;-71
2023/09/10 07:09:23;;;;;;;18.20;12.77;;;;;;;;;;4897318;29;20475;-71
2023/09/10 07:11:50;;;;;;;21.90;12.60;;;;;;;;;;4896862;29;20479;-71
2023/09/10 07:14:16;;;;;;;19.77;12.40;;;;;;;;;;4897364;29;20412;-71
2023/09/10 07:16:42;;;;;;;18.70;13.30;;;;;;;;;;4906348;29;20792;-71
2023/09/10 07:19:08;;;;;;;23.77;13.17;;;;;;;;;;4915140;29;20465;-70
2023/09/10 07:21:35;;;;;;;17.40;12.37;;;;;;;;;;4915685;29;20792;-70
2023/09/10 07:24:06;;;;;;;20.27;13.40;;;;;;;;;;4916061;29;20410;-71
2023/09/10 07:26:32;;;;;;;19.50;13.93;;;;;;;;;;4909358;29;20794;-70
2023/09/10 07:28:58;;;;;;;20.33;13.20;;;;;;;;;;4897472;29;20444;-70
2023/09/10 07:31:24;;;;;;;16.20;11.80;;;;;;;;;;4896527;29;20955;-70
2023/09/10 07:33:49;;;;;;;22.27;14.60;;;;;;;;;;4896909;29;20479;-71
2023/09/10 07:36:15;;;;;;;33.13;13.57;;;;;;;;;;4896971;29;20470;-71
2023/09/10 07:38:41;;;;;;;19.63;12.33;;;;;;;;;;4902489;29;20470;-70
2023/09/10 07:41:07;;;;;;;23.07;13.93;;;;;;;;;;4915899;29;20479;-70
2023/09/10 07:43:33;;;;;;;23.00;13.67;;;;;;;;;;4915512;29;20461;-71
2023/09/10 07:45:59;;;;;;;19.73;12.17;;;;;;;;;;4915700;29;20422;-70
2023/09/10 07:48:25;;;;;;;21.17;13.93;;;;;;;;;;4915884;29;20459;-71
2023/09/10 07:50:58;;;;;;;23.60;14.37;;;;;;;;;;4914022;29;20549;-70
2023/09/10 07:53:24;;;;;;;17.00;13.17;;;;;;;;;;4915377;29;20510;-69
2023/09/10 07:55:50;;;;;;;18.70;13.73;;;;;;;;;;4910593;29;20464;-69
2023/09/10 07:58:16;;;;;;;20.37;13.13;;;;;;;;;;4905221;29;20969;-70
2023/09/10 08:00:42;;;;;;;19.70;14.57;;;;;;;;;;4915255;29;20491;-70
2023/09/10 08:03:08;;;;;;;19.53;14.03;;;;;;;;;;4908008;29;20800;-70
2023/09/10 08:05:34;;;;;;;21.07;14.67;;;;;;;;;;4901895;29;20522;-70
2023/09/10 08:08:03;;;;;;;23.87;13.83;;;;;;;;;;4915737;29;20418;-70
2023/09/10 08:10:29;;;;;;;21.63;12.73;;;;;;;;;;4915758;29;20435;-70
2023/09/10 08:12:55;;;;;;;26.97;14.47;;;;;;;;;;4915143;29;20438;-70
2023/09/10 08:15:21;;;;;;;19.97;14.20;;;;;;;;;;4911295;29;20574;-70
2023/09/10 08:17:50;;;;;;;20.83;13.30;;;;;;;;;;4899212;29;20454;-70
2023/09/10 08:20:16;;;;;;;18.67;11.93;;;;;;;;;;4900302;29;20405;-70
2023/09/10 08:22:43;;;;;;;20.10;13.63;;;;;;;;;;4900015;29;20407;-70
2023/09/10 08:25:09;;;;;;;19.77;13.60;;;;;;;;;;4900119;29;20777;-70
2023/09/10 08:27:35;;;;;;;18.13;12.30;;;;;;;;;;4905561;29;20437;-70
2023/09/10 08:30:03;;;;;;;21.20;12.43;;;;;;;;;;4918780;29;20441;-70
2023/09/10 08:32:29;;;;;;;23.80;13.33;;;;;;;;;;4901348;29;20478;-70
2023/09/10 08:34:55;;;;;;;19.73;13.67;;;;;;;;;;4910415;29;20422;-70
2023/09/10 08:37:21;;;;;;;18.93;12.40;;;;;;;;;;4917744;29;20437;-70
2023/09/10 08:39:48;;;;;;;20.37;13.40;;;;;;;;;;4911545;29;20570;-70
2023/09/10 08:42:14;;;;;;;18.33;13.90;;;;;;;;;;4899595;29;20451;-70
2023/09/10 08:44:43;;;;;;;24.97;12.90;;;;;;;;;;4900032;29;20415;-70
2023/09/10 08:47:12;;;;;;;19.37;12.47;;;;;;;;;;4899760;29;20420;-70
2023/09/10 08:49:41;;;;;;;18.63;11.90;;;;;;;;;;4899774;29;20427;-70
2023/09/10 08:52:07;;;;;;;23.10;13.77;;;;;;;;;;4914508;29;21024;-70
2023/09/10 08:54:33;;;;;;;27.40;12.40;;;;;;;;;;4918682;29;20415;-70
2023/09/10 08:57:00;;;;;;;21.93;13.40;;;;;;;;;;4918723;29;20444;-70
2023/09/10 08:59:26;;;;;;;16.03;11.70;;;;;;;;;;4918489;29;20525;-70
2023/09/10 09:01:52;;;;;;;19.90;12.57;;;;;;;;;;4917959;29;20453;-70
2023/09/10 09:04:19;;;;;;;20.73;11.90;;;;;;;;;;4900185;29;20423;-70
2023/09/10 09:06:48;;;;;;;19.77;11.73;;;;;;;;;;4898454;29;20419;-70
2023/09/10 09:09:16;;;;;;;17.50;11.77;;;;;;;;;;4899659;29;20474;-71
2023/09/10 09:11:42;;;;;;;27.40;11.97;;;;;;;;;;4899109;29;20455;-70
2023/09/10 09:14:09;;;;;;;18.93;11.50;;;;;;;;;;4899641;29;20448;-70
2023/09/10 09:16:35;;;;;;;15.60;10.50;;;;;;;;;;4918550;29;20426;-70
2023/09/10 09:19:05;;;;;;;15.33;10.53;;;;;;;;;;4918054;29;20469;-70
2023/09/10 09:21:32;;;;;;;17.13;11.87;;;;;;;;;;4917471;29;20435;-70
2023/09/10 09:23:59;;;;;;;15.30;10.20;;;;;;;;;;4899107;29;20424;-70
2023/09/10 09:26:27;;;;;;;17.10;10.20;;;;;;;;;;4906909;29;20590;-70
2023/09/10 09:28:55;;;;;;;16.53;9.90;;;;;;;;;;4917468;29;20407;-70
2023/09/10 09:31:21;;;;;;;13.83;10.77;;;;;;;;;;4917408;29;20861;-70
2023/09/10 09:33:47;;;;;;;19.00;9.90;;;;;;;;;;4917876;29;20474;-71
2023/09/10 09:36:13;;;;;;;18.90;10.77;;;;;;;;;;4912530;29;20428;-71
2023/09/10 09:38:43;;;;;;;16.27;9.63;;;;;;;;;;4899439;29;20482;-70
2023/09/10 09:41:09;;;;;;;13.03;9.70;;;;;;;;;;4898658;29;20864;-70
2023/09/10 09:43:35;;;;;;;17.63;9.70;;;;;;;;;;4898745;29;20443;-70
2023/09/10 09:46:02;;;;;;;19.50;10.03;;;;;;;;;;4898943;29;20423;-70
2023/09/10 09:48:28;;;;;;;12.73;8.40;;;;;;;;;;4899275;29;20904;-70
2023/09/10 09:50:55;;;;;;;17.53;10.17;;;;;;;;;;4899295;29;20455;-70
2023/09/10 09:53:24;;;;;;;14.77;9.67;;;;;;;;;;4898951;29;20480;-70
2023/09/10 09:55:53;;;;;;;14.60;9.30;;;;;;;;;;4897795;29;20424;-70
2023/09/10 09:58:21;;;;;;;23.43;11.07;;;;;;;;;;4898989;29;21096;-71
2023/09/10 10:00:47;;;;;;;15.23;10.10;;;;;;;;;;4911177;29;20823;-71
2023/09/10 10:03:13;;;;;;;15.97;10.33;;;;;;;;;;4917401;29;20411;-70
2023/09/10 10:05:39;;;;;;;20.30;10.83;;;;;;;;;;4918069;29;20478;-70
2023/09/10 10:08:05;;;;;;;21.37;10.27;;;;;;;;;;4918144;29;20414;-70
2023/09/10 10:10:31;;;;;;;15.50;9.50;;;;;;;;;;4917017;29;20434;-70
2023/09/10 10:12:57;;;;;;;13.37;9.13;;;;;;;;;;4902481;29;20435;-70
2023/09/10 10:15:24;;;;;;;16.60;9.43;;;;;;;;;;4898462;29;20411;-70
2023/09/10 10:17:50;;;;;;;19.37;10.27;;;;;;;;;;4898613;29;20502;-70
2023/09/10 10:20:17;;;;;;;14.67;9.27;;;;;;;;;;4898460;29;20440;-70
2023/09/10 10:22:43;;;;;;;13.73;9.60;;;;;;;;;;4898028;29;20430;-70
2023/09/10 10:25:09;;;;;;;15.87;8.70;;;;;;;;;;4915695;29;20440;-70
2023/09/10 10:27:35;;;;;;;15.43;9.03;;;;;;;;;;4917171;29;20418;-70
2023/09/10 10:30:05;;;;;;;11.90;9.27;;;;;;;;;;4917116;29;20449;-70
2023/09/10 10:32:32;;;;;;;17.40;9.60;;;;;;;;;;4904369;29;20478;-70
2023/09/10 10:35:00;;;;;;;15.87;9.10;;;;;;;;;;4900710;29;20949;-71
2023/09/10 10:37:26;;;;;;;20.17;10.70;;;;;;;;;;4914132;29;20494;-69
2023/09/10 10:40:11;;;;;;;10.23;7.50;;;;;;;;;;4915834;29;20478;-72
2023/09/10 10:42:55;;;;;;;17.73;9.30;;;;;;;;;;4915709;29;20477;-71
2023/09/10 10:45:24;;;;;;;14.50;8.87;;;;;;;;;;4916542;29;20486;-71
2023/09/10 10:47:51;;;;;;;12.17;8.70;;;;;;;;;;4907327;29;20428;-69
2023/09/10 10:50:27;;;;;;;12.67;8.73;;;;;;;;;;4897569;29;20415;-69
2023/09/10 10:52:56;;;;;;;14.67;9.83;;;;;;;;;;4897479;29;20470;-70
2023/09/10 10:55:23;;;;;;;13.03;9.07;;;;;;;;;;4897691;29;20927;-70
2023/09/10 10:57:49;;;;;;;15.70;10.00;;;;;;;;;;4897679;29;20467;-70
2023/09/10 11:00:15;;;;;;;13.33;8.73;;;;;;;;;;4907640;29;20511;-70
2023/09/10 11:02:41;;;;;;;11.60;9.17;;;;;;;;;;4916096;29;20887;-69
2023/09/10 11:05:08;;;;;;;12.17;9.43;;;;;;;;;;4916187;29;20415;-70
2023/09/10 11:07:34;;;;;;;11.53;7.87;;;;;;;;;;4916365;29;20934;-70
2023/09/10 11:10:23;;;;;;;12.80;9.37;;;;;;;;;;4916391;29;20422;-70
2023/09/10 11:13:09;;;;;;;16.53;9.43;;;;;;;;;;4900290;29;20439;-70
2023/09/10 11:15:35;;;;;;;15.47;10.30;;;;;;;;;;4897555;29;20423;-69
2023/09/10 11:18:20;;;;;;;12.83;9.53;;;;;;;;;;4897156;29;20420;-70
2023/09/10 11:20:50;;;;;;;14.57;8.87;;;;;;;;;;4897090;29;20455;-70
2023/09/10 11:23:16;;;;;;;15.30;9.67;;;;;;;;;;4899126;29;20993;-71
2023/09/10 11:25:42;;;;;;;17.23;9.27;;;;;;;;;;4916219;29;20415;-70
2023/09/10 11:28:28;;;;;;;15.67;8.83;;;;;;;;;;4914888;29;20410;-70
2023/09/10 11:30:54;;;;;;;15.07;8.47;;;;;;;;;;4903414;29;20542;-70
2023/09/10 11:33:30;;;;;;;15.57;8.77;;;;;;;;;;4904538;29;20784;-70
2023/09/10 11:36:00;;;;;;;15.67;8.20;;;;;;;;;;4905906;29;20513;-70
2023/09/10 11:38:28;;;;;;;11.77;8.27;;;;;;;;;;4916423;29;20699;-71
2023/09/10 11:40:55;;;;;;;16.77;8.47;;;;;;;;;;4918024;29;20450;-70
2023/09/10 11:43:21;;;;;;;17.13;8.97;;;;;;;;;;4917902;29;20414;-70
2023/09/10 11:45:47;;;;;;;14.70;8.47;;;;;;;;;;4917593;29;21034;-70
2023/09/10 11:48:13;;;;;;;11.30;8.83;;;;;;;;;;4906623;29;20451;-70
2023/09/10 11:50:39;;;;;;;14.23;10.20;;;;;;;;;;4896856;29;20458;-71
2023/09/10 11:53:05;;;;;;;14.83;8.53;;;;;;;;;;4897624;29;20415;-70
2023/09/10 11:55:31;;;;;;;11.37;8.20;;;;;;;;;;4896863;29;20426;-70
2023/09/10 11:57:57;;;;;;;15.20;9.73;;;;;;;;;;4896972;29;20416;-70
2023/09/10 12:00:24;;;;;;;11.00;8.37;;;;;;;;;;4907971;29;20438;-70
2023/09/10 12:02:50;;;;;;;14.90;8.13;;;;;;;;;;4915117;29;20414;-70
2023/09/10 12:05:16;;;;;;;14.80;8.73;;;;;;;;;;4915721;29;20925;-70
2023/09/10 12:07:44;;;;;;;17.67;9.20;;;;;;;;;;4915634;29;20421;-70
2023/09/10 12:10:10;;;;;;;17.40;8.63;;;;;;;;;;4913468;29;20442;-70
2023/09/10 12:12:37;;;;;;;18.83;8.67;;;;;;;;;;4914960;29;20502;-70
2023/09/10 12:15:03;;;;;;;12.87;8.20;;;;;;;;;;4915497;29;20423;-70
2023/09/10 12:17:30;;;;;;;18.43;9.87;;;;;;;;;;4915004;29;21046;-69
2023/09/10 12:19:56;;;;;;;15.23;8.87;;;;;;;;;;4914380;29;20466;-70
2023/09/10 12:22:22;;;;;;;12.50;9.60;;;;;;;;;;4895933;29;20448;-69
2023/09/10 12:24:48;;;;;;;10.30;8.40;;;;;;;;;;4896222;29;20427;-69
2023/09/10 12:27:14;;;;;;;11.87;8.70;;;;;;;;;;4896135;29;20420;-69
2023/09/10 12:29:40;;;;;;;14.60;8.93;;;;;;;;;;4900407;29;20747;-69
2023/09/10 12:32:06;;;;;;;15.10;9.47;;;;;;;;;;4914106;29;20465;-69
2023/09/10 12:34:33;;;;;;;18.30;9.00;;;;;;;;;;4900167;29;20442;-70
2023/09/10 12:36:59;;;;;;;12.70;8.60;;;;;;;;;;4908874;29;20422;-69
2023/09/10 12:39:28;;;;;;;12.37;9.03;;;;;;;;;;4912833;29;20474;-69
2023/09/10 12:42:02;;;;;;;12.97;9.17;;;;;;;;;;4914497;29;20438;-69
2023/09/10 12:44:29;;;;;;;14.83;9.27;;;;;;;;;;4913887;29;20406;-69
2023/09/10 12:46:55;;;;;;;16.13;8.80;;;;;;;;;;4915150;29;20422;-69
2023/09/10 12:49:21;;;;;;;9.93;7.70;;;;;;;;;;4915117;29;20414;-70
2023/09/10 12:51:48;;;;;;;15.03;8.63;;;;;;;;;;4908055;29;20511;-69
2023/09/10 12:54:15;;;;;;;10.33;8.13;;;;;;;;;;4905064;29;20498;-69
2023/09/10 12:56:41;;;;;;;12.83;8.50;;;;;;;;;;4914739;29;20786;-69
2023/09/10 12:59:08;;;;;;;17.23;9.20;;;;;;;;;;4914079;29;20458;-69
2023/09/10 13:01:35;;;;;;;12.93;8.20;;;;;;;;;;4898608;29;20498;-70
2023/09/10 13:04:01;;;;;;;10.38;7.68;;;;;;;;;;4896928;29;20369;-67
2023/09/10 13:06:28;;;;;;;13.20;8.37;;;;;;;;;;4898800;29;20179;-69
2023/09/10 13:08:55;;;;;;;14.23;8.53;;;;;;;;;;4894549;29;20424;-68
2023/09/10 13:11:21;;;;;;;14.53;8.43;;;;;;;;;;4894566;29;20534;-69
2023/09/10 13:13:46;;;;;;;14.27;8.43;;;;;;;;;;4898708;29;20952;-69
2023/09/10 13:16:12;;;;;;;14.30;9.03;;;;;;;;;;4898851;29;20804;-67
2023/09/10 13:18:38;;;;;;;14.93;7.87;;;;;;;;;;4899051;29;20463;-69
2023/09/10 13:21:05;;;;;;;10.37;7.77;;;;;;;;;;4898413;29;20439;-69
2023/09/10 13:23:31;;;;;;;15.73;9.13;;;;;;;;;;4898773;29;20415;-69
2023/09/10 13:25:57;;;;;;;16.60;9.43;;;;;;;;;;4898806;29;20412;-69
2023/09/10 13:28:23;;;;;;;14.80;8.23;;;;;;;;;;4896696;29;20472;-69
2023/09/10 13:30:49;;;;;;;17.93;8.70;;;;;;;;;;4898610;29;20458;-69
2023/09/10 13:33:15;;;;;;;13.37;8.47;;;;;;;;;;4898526;29;20434;-68
2023/09/10 13:35:41;;;;;;;10.87;8.50;;;;;;;;;;4898635;29;20423;-68
2023/09/10 13:38:07;;;;;;;15.17;8.60;;;;;;;;;;4898671;29;20488;-68
2023/09/10 13:40:36;;;;;;;14.73;9.20;;;;;;;;;;4898311;29;20550;-69
2023/09/10 13:43:02;;;;;;;10.77;8.03;;;;;;;;;;4898151;29;20427;-69
2023/09/10 13:45:28;;;;;;;14.83;9.17;;;;;;;;;;4898260;29;20423;-69
2023/09/10 13:47:54;;;;;;;15.70;8.40;;;;;;;;;;4898275;29;20419;-69
2023/09/10 13:50:19;;;;;;;13.13;8.53;;;;;;;;;;4896616;29;20435;-69
2023/09/10 13:52:45;;;;;;;17.20;8.50;;;;;;;;;;4897557;29;20447;-69
2023/09/10 13:55:11;;;;;;;14.57;8.10;;;;;;;;;;4898213;29;20939;-71
2023/09/10 13:57:37;;;;;;;15.43;8.43;;;;;;;;;;4898089;29;20869;-70
2023/09/10 14:00:08;;;;;;;14.17;8.37;;;;;;;;;;4898122;29;20467;-68
2023/09/10 14:02:34;;;;;;;12.03;7.47;;;;;;;;;;4897566;29;20443;-69
2023/09/10 14:05:00;;;;;;;14.17;8.37;;;;;;;;;;4897971;29;20427;-68
2023/09/10 14:07:26;;;;;;;15.37;8.47;;;;;;;;;;4898055;29;20494;-68
2023/09/10 14:09:52;;;;;;;11.57;8.60;;;;;;;;;;4898194;29;20921;-68
2023/09/10 14:12:18;;;;;;;9.33;7.73;;;;;;;;;;4897489;29;20866;-71
2023/09/10 14:14:44;;;;;;;11.20;8.00;;;;;;;;;;4897257;29;20511;-68
2023/09/10 14:17:10;;;;;;;12.30;8.50;;;;;;;;;;4897349;29;20435;-68
2023/09/10 14:19:37;;;;;;;14.90;8.30;;;;;;;;;;4905729;29;21006;-68
2023/09/10 14:22:03;;;;;;;12.17;8.83;;;;;;;;;;4897928;29;21022;-70
2023/09/10 14:24:30;;;;;;;12.97;8.10;;;;;;;;;;4897868;29;20474;-70
2023/09/10 14:26:57;;;;;;;9.50;6.97;;;;;;;;;;4897631;29;20420;-70
2023/09/10 14:29:24;;;;;;;14.27;8.60;;;;;;;;;;4897516;29;20519;-70
2023/09/10 14:31:50;;;;;;;13.67;9.43;;;;;;;;;;4897427;29;20779;-69
2023/09/10 14:34:16;;;;;;;15.70;8.27;;;;;;;;;;4897485;29;20817;-69
2023/09/10 14:36:42;;;;;;;11.67;8.73;;;;;;;;;;4897236;29;20443;-70
2023/09/10 14:39:08;;;;;;;11.27;8.20;;;;;;;;;;4897091;29;20986;-69
2023/09/10 14:41:34;;;;;;;16.43;7.70;;;;;;;;;;4896218;29;20462;-69
2023/09/10 14:44:00;;;;;;;12.37;8.13;;;;;;;;;;4897243;29;20419;-69
2023/09/10 14:46:26;;;;;;;15.33;8.10;;;;;;;;;;4897194;29;20420;-69
2023/09/10 14:48:51;;;;;;;9.80;7.97;;;;;;;;;;4897109;29;20423;-70
2023/09/10 14:51:18;;;;;;;13.50;9.23;;;;;;;;;;4896575;29;20841;-69
2023/09/10 14:53:44;;;;;;;13.00;8.70;;;;;;;;;;4896822;29;20435;-68
2023/09/10 14:56:09;;;;;;;12.90;8.50;;;;;;;;;;4897078;29;20511;-69
2023/09/10 14:58:35;;;;;;;9.83;7.30;;;;;;;;;;4896726;29;20458;-69
2023/09/10 15:01:01;;;;;;;16.20;9.20;;;;;;;;;;4896758;29;20459;-71
2023/09/10 15:03:27;;;;;;;15.90;8.27;;;;;;;;;;4896413;29;21011;-70
2023/09/10 15:05:53;;;;;;;9.90;7.57;;;;;;;;;;4896713;29;20442;-68
2023/09/10 15:08:19;;;;;;;9.57;7.53;;;;;;;;;;4896857;29;20425;-69
2023/09/10 15:10:45;;;;;;;10.97;8.10;;;;;;;;;;4896868;29;20470;-68
2023/09/10 15:13:11;;;;;;;15.20;8.37;;;;;;;;;;4895282;29;20565;-70
2023/09/10 15:15:37;;;;;;;9.90;8.00;;;;;;;;;;4897288;29;20439;-71
2023/09/10 15:18:03;;;;;;;13.70;8.70;;;;;;;;;;4897766;29;20428;-71
2023/09/10 15:20:29;;;;;;;10.90;8.47;;;;;;;;;;4896552;29;20459;-69
2023/09/10 15:22:55;;;;;;;11.50;8.37;;;;;;;;;;4898449;29;20420;-68
2023/09/10 15:25:21;;;;;;;15.30;7.90;;;;;;;;;;4897684;29;20427;-71
2023/09/10 15:27:47;;;;;;;14.63;8.77;;;;;;;;;;4896191;29;20542;-71
2023/09/10 15:30:13;;;;;;;14.70;8.90;;;;;;;;;;4896743;29;20434;-67
2023/09/10 15:32:39;;;;;;;13.90;8.37;;;;;;;;;;4897368;29;20562;-71
2023/09/10 15:35:05;;;;;;;13.20;8.60;;;;;;;;;;4895476;29;20470;-71
2023/09/10 15:37:31;;;;;;;13.70;7.67;;;;;;;;;;4897290;29;20492;-72
2023/09/10 15:39:57;;;;;;;13.30;7.93;;;;;;;;;;4892206;29;20471;-71
2023/09/10 15:42:23;;;;;;;11.70;8.27;;;;;;;;;;4896262;29;20439;-71
2023/09/10 15:44:49;;;;;;;18.27;8.80;;;;;;;;;;4897176;29;20495;-71
2023/09/10 15:47:15;;;;;;;10.60;7.60;;;;;;;;;;4896435;29;20451;-70
2023/09/10 15:49:41;;;;;;;15.40;8.10;;;;;;;;;;4895572;29;20447;-68
2023/09/10 15:52:08;;;;;;;16.30;9.17;;;;;;;;;;4896048;29;20447;-71
2023/09/10 15:54:34;;;;;;;11.90;7.90;;;;;;;;;;4896753;29;20428;-69
2023/09/10 15:57:00;;;;;;;15.47;8.37;;;;;;;;;;4896420;29;20419;-69
2023/09/10 15:59:26;;;;;;;14.10;8.33;;;;;;;;;;4896821;29;20971;-71
2023/09/10 16:01:52;;;;;;;19.50;8.80;;;;;;;;;;4896415;29;20474;-69
2023/09/10 16:04:18;;;;;;;15.80;8.60;;;;;;;;;;4896684;29;20939;-69
2023/09/10 16:06:44;;;;;;;15.87;8.73;;;;;;;;;;4896788;29;20811;-71
2023/09/10 16:09:11;;;;;;;10.77;8.00;;;;;;;;;;4896517;29;20422;-71
2023/09/10 16:11:38;;;;;;;17.30;8.13;;;;;;;;;;4895872;29;20529;-71
2023/09/10 16:14:04;;;;;;;14.70;8.47;;;;;;;;;;4896247;29;20435;-70
2023/09/10 16:16:30;;;;;;;14.53;7.53;;;;;;;;;;4896197;29;20494;-71
2023/09/10 16:18:58;;;;;;;15.03;8.73;;;;;;;;;;4895997;29;20482;-70
2023/09/10 16:21:24;;;;;;;13.80;8.47;;;;;;;;;;4895870;29;20879;-71
2023/09/10 16:23:50;;;;;;;15.60;8.27;;;;;;;;;;4895623;29;20506;-72
2023/09/10 16:26:16;;;;;;;14.10;7.93;;;;;;;;;;4909643;29;20458;-71
2023/09/10 16:28:42;;;;;;;15.03;9.17;;;;;;;;;;4897088;29;20438;-71
2023/09/10 16:31:10;;;;;;;10.17;7.93;;;;;;;;;;4895815;29;20819;-68
2023/09/10 16:33:36;;;;;;;10.97;7.73;;;;;;;;;;4895418;29;20454;-69
2023/09/10 16:36:02;;;;;;;16.50;9.50;;;;;;;;;;4895826;29;20948;-72
2023/09/10 16:38:28;;;;;;;12.73;8.00;;;;;;;;;;4898130;29;20506;-69
2023/09/10 16:40:57;;;;;;;15.80;8.37;;;;;;;;;;4891766;29;20446;-69
2023/09/10 16:43:23;;;;;;;12.30;8.83;;;;;;;;;;4899234;29;20419;-69
2023/09/10 16:45:49;;;;;;;11.83;8.37;;;;;;;;;;4899284;29;20426;-72
2023/09/10 16:48:15;;;;;;;16.57;8.30;;;;;;;;;;4898917;29;20411;-71
2023/09/10 16:50:41;;;;;;;12.77;9.27;;;;;;;;;;4899232;29;20443;-70
2023/09/10 16:53:07;;;;;;;12.93;8.50;;;;;;;;;;4899254;29;20412;-69
2023/09/10 16:55:33;;;;;;;12.00;7.77;;;;;;;;;;4899142;29;20931;-69
2023/09/10 16:57:59;;;;;;;13.20;8.30;;;;;;;;;;4899170;29;20414;-69
2023/09/10 17:00:25;;;;;;;12.93;8.80;;;;;;;;;;4899001;29;20482;-69
2023/09/10 17:02:51;;;;;;;15.80;9.13;;;;;;;;;;4898945;29;20435;-69
2023/09/10 17:05:17;;;;;;;16.07;9.93;;;;;;;;;;4899263;29;20419;-69
2023/09/10 17:07:43;;;;;;;14.80;7.97;;;;;;;;;;4898887;29;20754;-69
2023/09/10 17:10:09;;;;;;;13.80;9.17;;;;;;;;;;4898894;29;20860;-70
2023/09/10 17:12:35;;;;;;;13.50;9.00;;;;;;;;;;4898460;29;20518;-69
2023/09/10 17:15:01;;;;;;;12.50;8.03;;;;;;;;;;4898461;29;20518;-70
2023/09/10 17:17:28;;;;;;;16.37;8.80;;;;;;;;;;4898523;29;20438;-70
2023/09/10 17:19:54;;;;;;;15.90;9.30;;;;;;;;;;4898299;29;20853;-69
2023/09/10 17:22:20;;;;;;;13.27;8.10;;;;;;;;;;4897927;29;20443;-69
2023/09/10 17:24:46;;;;;;;14.53;8.77;;;;;;;;;;4900333;29;20483;-70
2023/09/10 17:27:12;;;;;;;15.90;8.17;;;;;;;;;;4904125;29;20953;-71
2023/09/10 17:29:38;;;;;;;14.97;8.33;;;;;;;;;;4898186;29;20959;-69
2023/09/10 17:32:04;;;;;;;18.00;8.50;;;;;;;;;;4898131;29;20527;-70
2023/09/10 17:34:30;;;;;;;14.03;8.87;;;;;;;;;;4898236;29;20448;-69
2023/09/10 17:36:56;;;;;;;19.40;9.57;;;;;;;;;;4898355;29;20462;-70
2023/09/10 17:39:22;;;;;;;18.93;9.70;;;;;;;;;;4898215;29;20475;-70
2023/09/10 17:41:48;;;;;;;14.40;9.03;;;;;;;;;;4904892;29;20446;-70
2023/09/10 17:44:14;;;;;;;16.07;10.27;;;;;;;;;;4911102;29;20425;-70
2023/09/10 17:46:40;;;;;;;14.27;9.60;;;;;;;;;;4917027;29;20907;-70
2023/09/10 17:49:06;;;;;;;16.47;9.50;;;;;;;;;;4915347;29;20486;-70
2023/09/10 17:51:32;;;;;;;16.40;9.50;;;;;;;;;;4916599;29;20682;-70
2023/09/10 17:53:58;;;;;;;14.60;9.20;;;;;;;;;;4917099;29;20552;-69
2023/09/10 17:56:24;;;;;;;15.83;9.43;;;;;;;;;;4916476;29;20923;-69
2023/09/10 17:58:50;;;;;;;23.90;9.23;;;;;;;;;;4916700;29;20896;-70
2023/09/10 18:01:16;;;;;;;14.00;10.50;;;;;;;;;;4901368;29;20810;-72
2023/09/10 18:03:42;;;;;;;14.10;9.47;;;;;;;;;;4897999;29;20415;-69
2023/09/10 18:06:08;;;;;;;12.23;8.60;;;;;;;;;;4898356;29;20412;-70
2023/09/10 18:08:34;;;;;;;12.30;9.00;;;;;;;;;;4898102;29;20750;-69
2023/09/10 18:11:00;;;;;;;16.20;10.03;;;;;;;;;;4897527;29;20433;-70
2023/09/10 18:13:26;;;;;;;15.30;9.37;;;;;;;;;;4911862;29;20499;-70
2023/09/10 18:15:52;;;;;;;12.50;9.33;;;;;;;;;;4927761;23;20503;-74
2023/09/10 18:18:18;;;;;;;13.07;8.87;;;;;;;;;;4912493;29;20416;-74
2023/09/10 18:20:44;;;;;;;17.37;9.63;;;;;;;;;;4898340;29;20415;-74
2023/09/10 18:23:10;;;;;;;13.90;9.13;;;;;;;;;;4898225;29;20441;-74
2023/09/10 18:25:36;;;;;;;14.50;8.90;;;;;;;;;;4913006;29;20447;-74
2023/09/10 18:28:02;;;;;;;14.60;8.60;;;;;;;;;;4916484;29;20430;-74
2023/09/10 18:30:28;;;;;;;18.43;9.30;;;;;;;;;;4916656;29;20419;-74
2023/09/10 18:32:54;;;;;;;13.40;8.93;;;;;;;;;;4916504;29;20418;-73
2023/09/10 18:35:21;;;;;;;17.93;9.07;;;;;;;;;;4916752;29;20529;-74
2023/09/10 18:37:47;;;;;;;12.53;8.60;;;;;;;;;;4916484;29;20431;-73
2023/09/10 18:40:13;;;;;;;14.80;9.80;;;;;;;;;;4916545;29;20520;-73
2023/09/10 18:42:41;;;;;;;12.67;9.00;;;;;;;;;;4915340;29;20438;-74
2023/09/10 18:45:07;;;;;;;17.03;9.17;;;;;;;;;;4915307;29;20454;-73
2023/09/10 18:47:33;;;;;;;15.60;9.20;;;;;;;;;;4916387;29;20414;-74
2023/09/10 18:49:59;;;;;;;20.27;10.50;;;;;;;;;;4896172;29;21036;-74
2023/09/10 18:52:25;;;;;;;23.20;12.23;;;;;;;;;;4899370;29;20522;-74
2023/09/10 18:54:52;;;;;;;15.83;9.33;;;;;;;;;;4904177;29;20443;-74
2023/09/10 18:57:18;;;;;;;18.10;10.37;;;;;;;;;;4902809;29;20515;-74
2023/09/10 18:59:44;;;;;;;16.33;10.60;;;;;;;;;;4897743;29;20497;-74
2023/09/10 19:02:10;;;;;;;15.70;10.53;;;;;;;;;;4896859;29;20471;-75
2023/09/10 19:04:37;;;;;;;17.00;10.37;;;;;;;;;;4897515;29;20439;-73
2023/09/10 19:07:03;;;;;;;18.10;10.37;;;;;;;;;;4897839;29;20451;-73
2023/09/10 19:09:29;;;;;;;16.63;10.20;;;;;;;;;;4897774;29;20795;-73
2023/09/10 19:11:55;;;;;;;13.30;9.10;;;;;;;;;;4897136;29;20475;-73
2023/09/10 19:14:21;;;;;;;16.03;10.40;;;;;;;;;;4896876;29;20431;-73
2023/09/10 19:16:48;;;;;;;20.10;10.50;;;;;;;;;;4897558;29;20965;-74
2023/09/10 19:19:14;;;;;;;13.03;10.00;;;;;;;;;;4896915;29;20467;-73
2023/09/10 19:21:40;;;;;;;20.60;10.47;;;;;;;;;;4896806;29;20451;-73
2023/09/10 19:24:06;;;;;;;17.83;11.57;;;;;;;;;;4894315;29;20439;-73
2023/09/10 19:26:32;;;;;;;16.93;11.60;;;;;;;;;;4893086;29;20442;-73
2023/09/10 19:28:58;;;;;;;20.37;11.40;;;;;;;;;;4889047;29;20411;-72
2023/09/10 19:31:30;;;;;;;18.97;12.20;;;;;;;;;;4896648;29;20934;-72
2023/09/10 19:33:56;;;;;;;20.47;11.13;;;;;;;;;;4889860;29;20439;-73
2023/09/10 19:36:22;;;;;;;27.87;12.27;;;;;;;;;;4897182;29;20809;-73
2023/09/10 19:38:50;;;;;;;14.93;10.20;;;;;;;;;;4896623;29;20466;-73
2023/09/10 19:41:16;;;;;;;21.63;10.17;;;;;;;;;;4896683;29;20416;-74
2023/09/10 19:43:42;;;;;;;15.73;10.03;;;;;;;;;;4900165;29;20944;-73
2023/09/10 19:46:07;;;;;;;15.87;10.40;;;;;;;;;;4896523;29;20829;-73
2023/09/10 19:48:33;;;;;;;21.17;11.10;;;;;;;;;;4896642;29;20423;-74
2023/09/10 19:51:00;;;;;;;18.40;11.27;;;;;;;;;;4896547;29;20463;-73
2023/09/10 19:53:26;;;;;;;16.07;10.70;;;;;;;;;;4890185;29;20456;-74
2023/09/10 19:55:59;;;;;;;18.83;11.40;;;;;;;;;;4895024;29;20597;-74
2023/09/10 19:58:25;;;;;;;16.60;11.47;;;;;;;;;;4896551;29;20431;-74
2023/09/10 20:00:52;;;;;;;17.60;11.60;;;;;;;;;;4896613;29;20495;-74
2023/09/10 20:03:18;;;;;;;25.13;13.10;;;;;;;;;;4896183;29;20430;-73
2023/09/10 20:05:44;;;;;;;23.83;11.27;;;;;;;;;;4894977;29;20452;-72
2023/09/10 20:08:10;;;;;;;17.77;11.30;;;;;;;;;;4895148;29;20431;-72
2023/09/10 20:10:36;;;;;;;18.80;12.23;;;;;;;;;;4896667;29;20427;-71
2023/09/10 20:13:02;;;;;;;28.90;13.03;;;;;;;;;;4897727;29;20919;-73
2023/09/10 20:15:29;;;;;;;22.63;12.90;;;;;;;;;;4900044;29;20997;-73
2023/09/10 20:17:55;;;;;;;22.97;12.60;;;;;;;;;;4899960;29;20423;-73
2023/09/10 20:20:21;;;;;;;23.47;12.80;;;;;;;;;;4900314;29;20534;-73
2023/09/10 20:22:47;;;;;;;19.10;11.70;;;;;;;;;;4898746;29;20946;-74